Bonum — CRA5490 — position and weather

sailwx.info

Track history (hours):
 
Tides and Currents Weather Stations Pressure Air Temp Water Temp Dewpoint Dewpoint Depression Visibility Wind Speed Wind Dir Waves Ship Positions

Bonum

Last reported at 2016-Sep-24 17:28 UTC. Time now 2016-Sep-27 22:21 UTC.
Position N 35°54' E 014°32'.

Length 38 m; draft 3.2 m.

Type: Ship. MMSI: 255910770.

Date/timePositionNaut miles runAvg speedWind from/ knotsBaromVisibWave heightAir tempDewpointWater temp
2016-Sep-24 17:28N 35°54' E 014°32'2 2.8
2016-Sep-24 16:34N 35°56' E 014°34'  
2016-Sep-21 08:32N 37°55' E 023°02'28 9.5
2016-Sep-21 05:34N 37°54' E 023°38'3 1.6
2016-Sep-21 03:33N 37°56' E 023°41'0 0.0
2016-Sep-21 02:34N 37°56' E 023°41'0 0.0
2016-Sep-20 17:33N 37°56' E 023°41'0 0.0
2016-Sep-20 14:34N 37°56' E 023°41'0 0.0
2016-Sep-20 13:34N 37°56' E 023°41'0 0.0
2016-Sep-20 10:34N 37°56' E 023°41'0 0.0
2016-Sep-20 08:34N 37°56' E 023°41'0 0.0
2016-Sep-20 07:34N 37°56' E 023°41'0 0.0
2016-Sep-20 06:33N 37°56' E 023°41'0 0.0
2016-Sep-20 02:34N 37°56' E 023°41'0 0.0
2016-Sep-19 23:33N 37°56' E 023°41'0 0.0
2016-Sep-19 19:33N 37°56' E 023°41'0 0.0
2016-Sep-19 18:34N 37°56' E 023°41'0 0.0
2016-Sep-19 16:33N 37°56' E 023°41'0 0.0
2016-Sep-19 14:34N 37°56' E 023°41'0 0.0
2016-Sep-19 13:33N 37°56' E 023°41'0 0.0
2016-Sep-19 12:34N 37°56' E 023°41'0 0.0
2016-Sep-19 11:33N 37°56' E 023°41'0 0.0
2016-Sep-19 09:34N 37°56' E 023°41'2 0.9
2016-Sep-19 07:34N 37°55' E 023°39'10 9.8
2016-Sep-19 06:34N 37°49' E 023°29'11 3.6
2016-Sep-19 03:24N 37°41' E 023°19'0 0.0
2016-Sep-19 02:34N 37°41' E 023°19'0 0.0
2016-Sep-19 00:33N 37°41' E 023°19'0 0.0
2016-Sep-18 19:33N 37°41' E 023°19'0 0.0
2016-Sep-18 15:33N 37°41' E 023°19'0 0.0
2016-Sep-18 14:33N 37°41' E 023°19'0 0.0
2016-Sep-18 09:32N 37°41' E 023°19'49 2.4
2016-Sep-17 13:32N 38°11' E 022°31'  
Track history (hours):
 
Tides and Currents Weather Stations Pressure Air Temp Water Temp Dewpoint Dewpoint Depression Visibility Wind Speed Wind Dir Waves Ship Positions

Bonum

Last reported at 2016-Sep-24 17:28 UTC. Time now 2016-Sep-27 22:21 UTC.
Position N 35°54' E 014°32'.

Length 38 m; draft 3.2 m.

Type: Ship. MMSI: 255910770.

Date/timePositionNaut miles runAvg speedWind from/ knotsBaromVisibWave heightAir tempDewpointWater temp
2016-Sep-24 17:28N 35°54' E 014°32'2 2.8
2016-Sep-24 16:34N 35°56' E 014°34'  
2016-Sep-21 08:32N 37°55' E 023°02'28 9.5
2016-Sep-21 05:34N 37°54' E 023°38'3 1.6
2016-Sep-21 03:33N 37°56' E 023°41'0 0.0
2016-Sep-21 02:34N 37°56' E 023°41'0 0.0
2016-Sep-20 17:33N 37°56' E 023°41'0 0.0
2016-Sep-20 14:34N 37°56' E 023°41'0 0.0
2016-Sep-20 13:34N 37°56' E 023°41'0 0.0
2016-Sep-20 10:34N 37°56' E 023°41'0 0.0
2016-Sep-20 08:34N 37°56' E 023°41'0 0.0
2016-Sep-20 07:34N 37°56' E 023°41'0 0.0
2016-Sep-20 06:33N 37°56' E 023°41'0 0.0
2016-Sep-20 02:34N 37°56' E 023°41'0 0.0
2016-Sep-19 23:33N 37°56' E 023°41'0 0.0
2016-Sep-19 19:33N 37°56' E 023°41'0 0.0
2016-Sep-19 18:34N 37°56' E 023°41'0 0.0
2016-Sep-19 16:33N 37°56' E 023°41'0 0.0
2016-Sep-19 14:34N 37°56' E 023°41'0 0.0
2016-Sep-19 13:33N 37°56' E 023°41'0 0.0
2016-Sep-19 12:34N 37°56' E 023°41'0 0.0
2016-Sep-19 11:33N 37°56' E 023°41'0 0.0
2016-Sep-19 09:34N 37°56' E 023°41'2 0.9
2016-Sep-19 07:34N 37°55' E 023°39'10 9.8
2016-Sep-19 06:34N 37°49' E 023°29'11 3.6
2016-Sep-19 03:24N 37°41' E 023°19'0 0.0
2016-Sep-19 02:34N 37°41' E 023°19'0 0.0
2016-Sep-19 00:33N 37°41' E 023°19'0 0.0
2016-Sep-18 19:33N 37°41' E 023°19'0 0.0
2016-Sep-18 15:33N 37°41' E 023°19'0 0.0
2016-Sep-18 14:33N 37°41' E 023°19'0 0.0
2016-Sep-18 09:32N 37°41' E 023°19'49 2.4
2016-Sep-17 13:32N 38°11' E 022°31'  

Dump ship's entire track history